Time,TemperatureF,DewpointF,PressureIn,WindDirection,WindDirectionDegrees,WindSpeedMPH,WindSpeedGustMPH,Humidity,HourlyPrecipIn,Conditions,Clouds,dailyrainin,SoftwareType,DateUTC
2013-02-10 00:05:00,36.3,33.0,28.89,ESE,119,0.0,4.0,86,0.00,,,0.01,weatherlink.com 1.10,2013-02-10 09:05:00,
2013-02-10 00:20:00,36.2,32.0,28.88,ESE,119,0.0,4.0,86,0.00,,,0.01,weatherlink.com 1.10,2013-02-10 09:20:00,
2013-02-10 00:35:00,36.2,32.0,28.88,ESE,119,4.0,4.0,85,0.00,,,0.00,weatherlink.com 1.10,2013-02-10 09:35:00,
2013-02-10 00:50:00,37.0,32.0,28.88,ESE,119,0.0,4.0,82,0.00,,,0.00,weatherlink.com 1.10,2013-02-10 09:50:00,
2013-02-10 01:05:00,37.3,33.0,28.89,ESE,119,2.0,4.0,83,0.00,,,0.00,weatherlink.com 1.10,2013-02-10 10:05:00,
2013-02-10 01:20:00,36.9,33.0,28.88,SE,135,0.0,6.0,84,0.00,,,0.00,weatherlink.com 1.10,2013-02-10 10:20:00,
2013-02-10 01:35:00,36.9,32.0,28.88,SE,135,0.0,2.0,83,0.00,,,0.00,weatherlink.com 1.10,2013-02-10 10:35:00,
2013-02-10 01:51:00,37.4,32.0,28.89,ESE,117,2.0,9.0,80,0.00,,,0.00,weatherlink.com 1.10,2013-02-10 10:51:00,
2013-02-10 02:06:00,37.3,32.0,28.89,ESE,117,1.0,7.0,80,0.00,,,0.00,weatherlink.com 1.10,2013-02-10 11:06:00,
2013-02-10 02:21:00,37.1,32.0,28.89,ESE,117,0.0,5.0,81,0.00,,,0.00,weatherlink.com 1.10,2013-02-10 11:21:00,
2013-02-10 02:36:00,37.1,32.0,28.90,ESE,117,2.0,5.0,81,0.00,,,0.00,weatherlink.com 1.10,2013-02-10 11:36:00,
2013-02-10 02:51:00,37.2,32.0,28.91,ESE,117,0.0,2.0,81,0.00,,,0.00,weatherlink.com 1.10,2013-02-10 11:51:00,
2013-02-10 03:06:00,37.4,32.0,28.91,ESE,117,0.0,2.0,81,0.00,,,0.00,weatherlink.com 1.10,2013-02-10 12:06:00,
2013-02-10 03:21:00,37.4,32.0,28.92,ESE,117,0.0,3.0,81,0.00,,,0.00,weatherlink.com 1.10,2013-02-10 12:21:00,
2013-02-10 03:36:00,37.1,32.0,28.92,ESE,117,3.0,4.0,82,0.00,,,0.00,weatherlink.com 1.10,2013-02-10 12:36:00,
2013-02-10 03:51:00,36.7,32.0,28.93,South,188,0.0,7.0,84,0.00,,,0.00,weatherlink.com 1.10,2013-02-10 12:51:00,
2013-02-10 04:06:00,35.9,33.0,28.94,SSW,213,1.0,7.0,88,0.00,,,0.00,weatherlink.com 1.10,2013-02-10 13:06:00,
2013-02-10 04:21:00,35.1,33.0,28.96,South,169,2.0,9.0,91,0.00,,,0.00,weatherlink.com 1.10,2013-02-10 13:21:00,
2013-02-10 04:36:00,34.1,33.0,28.97,South,190,4.0,11.0,94,0.02,,,0.02,weatherlink.com 1.10,2013-02-10 13:36:00,
2013-02-10 04:51:00,33.9,33.0,28.98,WSW,240,12.0,12.0,95,0.03,,,0.03,weatherlink.com 1.10,2013-02-10 13:51:00,
2013-02-10 05:06:00,33.3,32.0,29.00,SSW,197,5.0,17.0,95,0.04,,,0.04,weatherlink.com 1.10,2013-02-10 14:06:00,
2013-02-10 05:21:00,32.6,32.0,29.02,WSW,247,8.0,27.0,96,0.05,,,0.05,weatherlink.com 1.10,2013-02-10 14:21:00,
2013-02-10 05:36:00,32.0,31.0,29.03,SW,234,7.0,28.0,96,0.04,,,0.06,weatherlink.com 1.10,2013-02-10 14:36:00,
2013-02-10 05:52:00,31.7,31.0,29.05,West,279,10.0,21.0,96,0.03,,,0.06,weatherlink.com 1.10,2013-02-10 14:52:00,
2013-02-10 06:07:00,31.3,30.0,29.08,WSW,253,7.0,20.0,96,0.03,,,0.07,weatherlink.com 1.10,2013-02-10 15:07:00,
2013-02-10 06:21:00,30.9,30.0,29.10,West,270,6.0,21.0,96,0.03,,,0.08,weatherlink.com 1.10,2013-02-10 15:21:00,
2013-02-10 06:37:00,30.6,30.0,29.11,WSW,256,14.0,20.0,96,0.02,,,0.08,weatherlink.com 1.10,2013-02-10 15:37:00,
2013-02-10 06:51:00,30.4,29.0,29.13,West,267,3.0,20.0,96,0.02,,,0.08,weatherlink.com 1.10,2013-02-10 15:51:00,
2013-02-10 07:07:00,30.3,30.0,29.15,South,185,3.0,14.0,97,0.02,,,0.09,weatherlink.com 1.10,2013-02-10 16:07:00,
2013-02-10 07:22:00,29.9,29.0,29.16,West,266,7.0,16.0,96,0.01,,,0.09,weatherlink.com 1.10,2013-02-10 16:22:00,
2013-02-10 07:37:00,29.8,29.0,29.18,WSW,248,1.0,10.0,97,0.02,,,0.10,weatherlink.com 1.10,2013-02-10 16:37:00,
2013-02-10 07:52:00,30.0,29.0,29.19,WSW,258,3.0,10.0,97,0.02,,,0.10,weatherlink.com 1.10,2013-02-10 16:52:00,
2013-02-10 08:07:00,30.4,30.0,29.19,WSW,258,1.0,11.0,97,0.01,,,0.10,weatherlink.com 1.10,2013-02-10 17:07:00,
2013-02-10 08:22:00,30.5,30.0,29.20,WSW,257,7.0,11.0,97,0.01,,,0.10,weatherlink.com 1.10,2013-02-10 17:22:00,
2013-02-10 08:37:00,30.6,30.0,29.21,WSW,246,2.0,9.0,97,0.00,,,0.10,weatherlink.com 1.10,2013-02-10 17:37:00,
2013-02-10 08:52:00,30.4,30.0,29.22,SW,227,2.0,6.0,97,0.00,,,0.10,weatherlink.com 1.10,2013-02-10 17:52:00,
2013-02-10 09:07:00,30.3,30.0,29.23,SSW,194,2.0,5.0,97,0.00,,,0.10,weatherlink.com 1.10,2013-02-10 18:07:00,
2013-02-10 09:22:00,30.3,30.0,29.23,SSW,208,2.0,5.0,97,0.00,,,0.10,weatherlink.com 1.10,2013-02-10 18:22:00,
2013-02-10 09:37:00,30.5,30.0,29.25,SSW,194,1.0,7.0,97,0.00,,,0.10,weatherlink.com 1.10,2013-02-10 18:37:00,
2013-02-10 09:52:00,30.8,30.0,29.26,West,265,2.0,7.0,97,0.00,,,0.10,weatherlink.com 1.10,2013-02-10 18:52:00,
2013-02-10 10:07:00,30.8,30.0,29.27,SSW,196,1.0,6.0,97,0.00,,,0.10,weatherlink.com 1.10,2013-02-10 19:07:00,
2013-02-10 10:22:00,30.9,30.0,29.28,SW,232,2.0,6.0,97,0.01,,,0.11,weatherlink.com 1.10,2013-02-10 19:22:00,
2013-02-10 10:37:00,30.9,30.0,29.28,SW,215,2.0,7.0,97,0.01,,,0.11,weatherlink.com 1.10,2013-02-10 19:37:00,
2013-02-10 10:52:00,30.8,30.0,29.29,SSW,199,2.0,8.0,97,0.02,,,0.12,weatherlink.com 1.10,2013-02-10 19:52:00,
2013-02-10 11:07:00,30.8,30.0,29.30,SW,231,1.0,7.0,97,0.02,,,0.12,weatherlink.com 1.10,2013-02-10 20:07:00,
2013-02-10 11:22:00,31.1,30.0,29.30,South,190,1.0,6.0,97,0.01,,,0.12,weatherlink.com 1.10,2013-02-10 20:22:00,
2013-02-10 11:37:00,31.1,30.0,29.31,West,259,4.0,12.0,97,0.02,,,0.13,weatherlink.com 1.10,2013-02-10 20:37:00,
2013-02-10 11:52:00,30.9,30.0,29.32,SW,221,5.0,9.0,97,0.01,,,0.13,weatherlink.com 1.10,2013-02-10 20:52:00,
2013-02-10 12:07:00,30.8,30.0,29.32,WSW,250,2.0,9.0,97,0.01,,,0.13,weatherlink.com 1.10,2013-02-10 21:07:00,
2013-02-10 12:23:00,30.8,30.0,29.33,WSW,238,6.0,9.0,97,0.01,,,0.13,weatherlink.com 1.10,2013-02-10 21:23:00,
2013-02-10 12:37:00,30.6,30.0,29.34,WSW,243,2.0,8.0,97,0.00,,,0.13,weatherlink.com 1.10,2013-02-10 21:37:00,
2013-02-10 12:52:00,30.5,30.0,29.34,West,273,7.0,10.0,97,0.00,,,0.13,weatherlink.com 1.10,2013-02-10 21:52:00,
2013-02-10 13:07:00,30.4,30.0,29.34,WSW,254,5.0,8.0,97,0.00,,,0.13,weatherlink.com 1.10,2013-02-10 22:07:00,
2013-02-10 13:23:00,30.1,29.0,29.34,West,264,2.0,8.0,97,0.00,,,0.13,weatherlink.com 1.10,2013-02-10 22:23:00,
2013-02-10 13:37:00,29.9,29.0,29.34,NW,308,5.0,9.0,97,0.00,,,0.13,weatherlink.com 1.10,2013-02-10 22:37:00,
2013-02-10 13:52:00,29.7,29.0,29.34,West,261,4.0,7.0,97,0.01,,,0.14,weatherlink.com 1.10,2013-02-10 22:52:00,
2013-02-10 14:07:00,29.6,29.0,29.34,WSW,255,7.0,10.0,96,0.01,,,0.14,weatherlink.com 1.10,2013-02-10 23:07:00,
2013-02-10 14:22:00,29.4,28.0,29.34,West,269,5.0,7.0,96,0.01,,,0.14,weatherlink.com 1.10,2013-02-10 23:22:00,
2013-02-10 14:37:00,29.4,28.0,29.35,West,275,1.0,8.0,96,0.00,,,0.14,weatherlink.com 1.10,2013-02-10 23:37:00,
2013-02-10 14:53:00,29.4,28.0,29.35,West,273,3.0,7.0,96,0.00,,,0.14,weatherlink.com 1.10,2013-02-10 23:53:00,
2013-02-10 15:07:00,29.5,29.0,29.35,WNW,286,2.0,7.0,96,0.00,,,0.14,weatherlink.com 1.10,2013-02-11 00:07:00,
2013-02-10 15:23:00,29.4,28.0,29.35,West,261,2.0,9.0,96,0.00,,,0.14,weatherlink.com 1.10,2013-02-11 00:23:00,
2013-02-10 15:37:00,29.3,28.0,29.36,West,266,4.0,9.0,96,0.00,,,0.14,weatherlink.com 1.10,2013-02-11 00:37:00,
2013-02-10 15:53:00,29.3,28.0,29.36,WNW,289,3.0,8.0,96,0.01,,,0.15,weatherlink.com 1.10,2013-02-11 00:53:00,
2013-02-10 16:08:00,29.3,28.0,29.36,WSW,251,1.0,7.0,96,0.01,,,0.15,weatherlink.com 1.10,2013-02-11 01:08:00,
2013-02-10 16:23:00,29.3,28.0,29.37,SSW,209,2.0,8.0,96,0.01,,,0.15,weatherlink.com 1.10,2013-02-11 01:23:00,
2013-02-10 16:38:00,29.3,28.0,29.37,SW,228,1.0,9.0,96,0.01,,,0.15,weatherlink.com 1.10,2013-02-11 01:38:00,
2013-02-10 16:53:00,29.3,28.0,29.38,WSW,237,2.0,9.0,96,0.00,,,0.15,weatherlink.com 1.10,2013-02-11 01:53:00,
2013-02-10 17:08:00,29.2,28.0,29.38,WSW,237,3.0,8.0,96,0.00,,,0.15,weatherlink.com 1.10,2013-02-11 02:08:00,
2013-02-10 17:23:00,29.2,28.0,29.39,WSW,257,5.0,10.0,96,0.00,,,0.15,weatherlink.com 1.10,2013-02-11 02:23:00,
2013-02-10 17:38:00,29.1,28.0,29.39,South,178,0.0,7.0,96,0.00,,,0.15,weatherlink.com 1.10,2013-02-11 02:38:00,
2013-02-10 17:53:00,29.1,28.0,29.40,WSW,249,5.0,5.0,95,0.00,,,0.15,weatherlink.com 1.10,2013-02-11 02:53:00,
2013-02-10 18:08:00,29.1,28.0,29.40,SSW,209,2.0,6.0,95,0.00,,,0.15,weatherlink.com 1.10,2013-02-11 03:08:00,
2013-02-10 18:23:00,29.0,28.0,29.40,WSW,254,1.0,5.0,95,0.00,,,0.15,weatherlink.com 1.10,2013-02-11 03:23:00,
2013-02-10 18:38:00,29.0,28.0,29.41,SW,225,3.0,6.0,95,0.00,,,0.15,weatherlink.com 1.10,2013-02-11 03:38:00,
2013-02-10 18:53:00,28.9,28.0,29.41,SSW,198,1.0,3.0,95,0.00,,,0.15,weatherlink.com 1.10,2013-02-11 03:53:00,
2013-02-10 19:08:00,28.8,27.0,29.41,South,187,1.0,3.0,94,0.00,,,0.15,weatherlink.com 1.10,2013-02-11 04:08:00,
2013-02-10 19:23:00,28.7,27.0,29.42,South,184,0.0,3.0,94,0.00,,,0.15,weatherlink.com 1.10,2013-02-11 04:23:00,
2013-02-10 19:38:00,28.7,27.0,29.43,WSW,241,3.0,3.0,94,0.00,,,0.15,weatherlink.com 1.10,2013-02-11 04:38:00,
2013-02-10 19:53:00,28.6,27.0,29.43,SW,226,3.0,7.0,94,0.00,,,0.15,weatherlink.com 1.10,2013-02-11 04:53:00,
2013-02-10 20:08:00,28.4,27.0,29.43,SSW,196,2.0,5.0,94,0.00,,,0.15,weatherlink.com 1.10,2013-02-11 05:08:00,
2013-02-10 20:23:00,28.3,27.0,29.44,SW,229,3.0,6.0,95,0.00,,,0.15,weatherlink.com 1.10,2013-02-11 05:23:00,
2013-02-10 20:38:00,28.2,27.0,29.44,SW,236,4.0,5.0,95,0.00,,,0.15,weatherlink.com 1.10,2013-02-11 05:38:00,
2013-02-10 20:53:00,28.1,27.0,29.44,WSW,248,2.0,9.0,96,0.00,,,0.15,weatherlink.com 1.10,2013-02-11 05:53:00,
2013-02-10 21:08:00,28.1,27.0,29.45,WNW,292,3.0,8.0,96,0.00,,,0.15,weatherlink.com 1.10,2013-02-11 06:08:00,
2013-02-10 21:23:00,27.7,27.0,29.45,West,277,6.0,7.0,96,0.00,,,0.15,weatherlink.com 1.10,2013-02-11 06:23:00,
2013-02-10 21:38:00,27.6,27.0,29.46,West,263,5.0,9.0,96,0.01,,,0.16,weatherlink.com 1.10,2013-02-11 06:38:00,
2013-02-10 21:53:00,27.4,26.0,29.46,West,263,4.0,11.0,96,0.01,,,0.16,weatherlink.com 1.10,2013-02-11 06:53:00,
2013-02-10 22:08:00,26.9,26.0,29.47,West,269,6.0,11.0,95,0.01,,,0.16,weatherlink.com 1.10,2013-02-11 07:08:00,
2013-02-10 22:23:00,26.6,25.0,29.48,West,277,10.0,12.0,95,0.02,,,0.17,weatherlink.com 1.10,2013-02-11 07:23:00,
2013-02-10 22:39:00,25.8,25.0,29.48,West,277,10.0,15.0,95,0.01,,,0.17,weatherlink.com 1.10,2013-02-11 07:39:00,
2013-02-10 22:53:00,25.2,24.0,29.50,West,277,2.0,16.0,94,0.01,,,0.17,weatherlink.com 1.10,2013-02-11 07:53:00,
2013-02-10 23:09:00,24.9,24.0,29.51,WSW,238,3.0,6.0,94,0.00,,,0.17,weatherlink.com 1.10,2013-02-11 08:09:00,
2013-02-10 23:23:00,24.7,23.0,29.52,SSW,211,1.0,6.0,94,0.00,,,0.17,weatherlink.com 1.10,2013-02-11 08:23:00,
2013-02-10 23:39:00,24.5,23.0,29.53,WSW,254,2.0,12.0,92,0.00,,,0.17,weatherlink.com 1.10,2013-02-11 08:39:00,
2013-02-10 23:54:00,24.1,22.0,29.54,SSW,206,6.0,7.0,92,0.00,,,0.17,weatherlink.com 1.10,2013-02-11 08:54:00,